Latest Weather Observations for Maria Island

IDT60901

Issued at 7:25 am EST Thursday 18 September 2014 (issued every 10 minutes, with the page automatically refreshed every 10 minutes)

About weather observations | Map of Hobart area stations | Latest observations for Hobart area | Other Formats
Station Details ID: 092124 Name: MARIA ISLAND (POINT LESUEUR) Lat: -42.66 Lon: 148.02 Height: 28.0 m
Data from the previous 72 hours. | See also: Recent months at Maria Island
Date/Time
EST
Tmp

°C
App
Tmp
°C
Dew
Point
°C
Rel
Hum
%
Delta-T

°C
Wind Press
QNH
hPa
Press
MSL
hPa
Rain
since
9 am
mm
Dir
 
Spd
km/h
Gust
km/h
Spd
kts
Gust
kts
18/07:00am 7.7 -0.9 4.8 82 1.3 SW 39 52 21 28 1013.0 1013.0 5.2
18/06:30am 7.7 -1.9 4.3 79 1.5 SW 44 57 24 31 1012.3 1012.3 5.0
18/06:00am 7.2 -3.9 4.7 84 1.1 SW 52 65 28 35 1011.9 1011.9 5.0
18/05:37am 8.1 -1.6 3.9 75 1.8 SW 44 67 24 36 1011.4 1011.4 4.8
18/05:30am 7.9 -1.2 4.1 77 1.6 SW 41 52 22 28 1011.3 1011.3 4.8
18/05:00am 8.4 -0.7 3.8 73 2.0 SW 41 50 22 27 1010.8 1010.8 4.6
18/04:30am 8.4 -1.6 4.2 75 1.8 SW 46 56 25 30 1010.5 1010.5 4.6
18/04:00am 8.2 -1.2 4.2 76 1.7 SW 43 56 23 30 1010.3 1010.3 4.6
18/03:30am 8.2 -2.1 4.6 78 1.6 SW 48 69 26 37 1009.9 1009.9 4.6
18/03:22am 8.1 -2.2 4.5 78 1.6 SW 48 69 26 37 1009.7 1009.7 4.6
18/03:00am 8.3 -0.6 5.1 80 1.4 SW 41 52 22 28 1009.7 1009.7 4.6
18/02:30am 8.1 -0.8 5.2 82 1.3 SW 41 52 22 28 1009.4 1009.4 4.4
18/02:00am 7.9 -2.5 6.2 89 0.8 SW 50 65 27 35 1009.1 1009.1 3.4
18/01:30am 7.9 -2.2 5.5 85 1.1 SW 48 69 26 37 1008.7 1008.7 3.2
18/01:24am 7.9 -2.2 5.5 85 1.1 SW 48 69 26 37 1008.6 1008.6 3.0
18/01:00am 8.2 -2.4 5.1 81 1.4 SW 50 65 27 35 1008.3 1008.3 3.0
18/12:33am 8.7 -1.2 4.7 76 1.8 SW 46 69 25 37 1007.6 1007.6 2.8
18/12:30am 8.5 -0.9 4.5 76 1.8 SW 43 54 23 29 1007.7 1007.7 2.8
18/12:19am 8.5 0.6 4.3 75 1.8 WSW 35 56 19 30 1007.8 1007.8 2.8
18/12:00am 8.3 -0.8 3.8 73 2.0 WSW 41 54 22 29 1007.4 1007.4 2.8
 
Date/Time
EST
Tmp

°C
App
Tmp
°C
Dew
Point
°C
Rel
Hum
%
Delta-T

°C
Wind Press
QNH
hPa
Press
MSL
hPa
Rain
since
9 am
mm
Dir
 
Spd
km/h
Gust
km/h
Spd
kts
Gust
kts
17/11:30pm 8.3 -0.2 3.4 71 2.1 SW 37 56 20 30 1007.0 1007.0 2.8
17/11:00pm 7.8 -0.2 1.9 66 2.4 WSW 33 46 18 25 1007.1 1007.1 2.8
17/10:30pm 7.6 0.9 1.2 64 2.6 WSW 26 35 14 19 1006.9 1006.9 2.8
17/10:00pm 7.4 0.6 0.6 62 2.7 W 26 37 14 20 1006.6 1006.6 2.8
17/09:30pm 7.6 0.3 0.3 60 2.9 W 28 37 15 20 1006.6 1006.6 2.8
17/09:00pm 7.9 1.0 -0.1 57 3.2 WSW 26 35 14 19 1006.4 1006.4 2.8
17/08:30pm 8.3 0.3 0.5 58 3.1 WSW 32 41 17 22 1006.1 1006.1 2.8
17/08:17pm 8.4 -0.5 0.6 58 3.1 WSW 37 57 20 31 1005.7 1005.7 2.8
17/08:00pm 8.6 -0.3 0.8 58 3.2 WSW 37 50 20 27 1005.5 1005.5 2.8
17/07:30pm 8.7 -1.3 0.9 58 3.2 SW 43 52 23 28 1005.1 1005.1 2.8
17/07:04pm 8.8 -1.1 1.7 61 2.9 SW 43 61 23 33 1004.9 1004.9 2.8
17/07:00pm 8.8 -1.3 1.7 61 2.9 SW 44 63 24 34 1004.8 1004.8 2.8
17/06:30pm 9.2 0.7 3.2 66 2.6 SW 37 48 20 26 1004.4 1004.4 2.8
17/06:00pm 9.1 -0.1 3.3 67 2.5 SW 41 56 22 30 1004.1 1004.1 2.8
17/05:30pm 9.2 -0.4 3.2 66 2.6 SW 43 59 23 32 1003.7 1003.7 2.8
17/05:21pm 9.4 0.4 2.7 63 2.9 SW 39 59 21 32 1003.6 1003.6 2.8
17/05:00pm 9.4 -1.5 3.4 66 2.6 SW 50 63 27 34 1003.3 1003.3 2.8
17/04:30pm 8.6 -1.9 3.6 71 2.2 SW 48 63 26 34 1003.0 1003.0 2.8
17/04:20pm 9.1 1.3 4.7 74 2.0 SW 35 59 19 32 1002.9 1002.9 2.6
17/04:00pm 9.6 1.7 4.4 70 2.3 SW 35 46 19 25 1002.6 1002.6 2.6
17/03:30pm 9.3 2.3 4.1 70 2.3 SW 30 41 16 22 1002.2 1002.2 2.6
17/03:00pm 8.9 1.5 3.9 71 2.2 SW 32 48 17 26 1001.8 1001.8 2.6
17/02:30pm 8.6 0.3 4.2 74 1.9 SW 37 54 20 29 1001.8 1001.8 2.6
17/02:00pm 8.5 0.3 4.7 77 1.7 SSW 37 48 20 26 1001.9 1001.9 2.6
17/01:30pm 7.9 -1.4 4.8 81 1.4 SSW 43 52 23 28 1001.9 1001.9 2.6
17/01:00pm 7.2 -3.6 4.3 82 1.3 SW 50 63 27 34 1001.9 1001.9 2.6
17/12:51pm 7.7 -1.6 4.8 82 1.3 WSW 43 63 23 34 1002.0 1002.0 2.6
17/12:50pm 8.0 -0.9 5.3 83 1.2 WSW 41 57 22 31 1002.0 1002.0 2.6
17/12:30pm 8.5 2.0 6.5 87 0.9 W 30 37 16 20 1002.0 1002.0 2.4
17/12:00pm 8.3 0.1 4.5 77 1.7 W 37 50 20 27 1001.9 1001.9 1.2
17/11:54am 10.4 1.8 4.5 67 2.6 W 39 46 21 25 1001.6 1001.6 0.0
17/11:30am 11.5 9.2 4.7 63 3.1 NNE 6 11 3 6 1001.7 1001.7 0.0
17/11:00am 11.9 8.1 5.8 66 2.9 N 15 19 8 10 1002.0 1002.0 0.0
17/10:30am 11.7 7.3 6.4 70 2.5 NNW 19 20 10 11 1002.3 1002.3 0.0
17/10:00am 10.7 6.0 6.1 73 2.2 NNW 20 24 11 13 1002.8 1002.8 0.0
17/09:30am 10.0 7.3 5.6 74 2.0 NW 9 13 5 7 1003.3 1003.3 0.0
17/09:00am 9.7 7.3 5.1 73 2.1 NW 7 11 4 6 1003.7 1003.7 0.0
17/08:30am 9.6 6.0 4.8 72 2.1 NNW 13 17 7 9 1003.9 1003.9 0.0
17/08:00am 9.1 4.5 5.5 78 1.6 WNW 19 22 10 12 1004.0 1004.0 0.0
17/07:30am 9.0 4.2 5.4 78 1.6 WNW 20 22 11 12 1004.1 1004.1 0.0
17/07:00am 8.6 4.0 5.4 80 1.4 WNW 19 22 10 12 1004.3 1004.3 0.0
17/06:30am 8.7 6.5 5.4 80 1.5 NW 6 13 3 7 1004.4 1004.4 0.0
17/06:00am 8.6 6.4 5.2 79 1.5 N 6 9 3 5 1004.8 1004.8 0.0
17/05:30am 9.1 5.2 5.3 77 1.7 W 15 20 8 11 1004.9 1004.9 0.0
17/05:00am 8.7 6.0 5.6 81 1.4 NNW 9 15 5 8 1005.1 1005.1 0.0
17/04:30am 9.0 6.5 6.4 84 1.2 N 9 13 5 7 1005.2 1005.2 0.0
17/04:00am 9.4 6.5 6.3 81 1.4 N 11 13 6 7 1005.5 1005.5 0.0
17/03:30am 9.5 7.4 6.0 79 1.6 NW 6 15 3 8 1005.8 1005.8 0.0
17/03:00am 9.1 7.0 6.5 84 1.2 N 7 13 4 7 1006.0 1006.0 0.0
17/02:30am 9.0 7.0 7.1 88 0.9 N 7 11 4 6 1006.3 1006.3 0.0
17/02:00am 8.3 6.3 6.1 86 1.0 WNW 6 7 3 4 1007.0 1007.0 0.0
17/01:30am 8.0 5.4 6.0 87 0.9 WNW 9 11 5 6 1007.2 1007.2 0.0
17/01:00am 8.3 5.0 6.6 89 0.8 NNW 13 15 7 8 1007.4 1007.4 0.0
17/12:30am 8.4 5.5 6.7 89 0.8 NW 11 15 6 8 1007.5 1007.5 0.0
17/12:00am 8.7 5.5 6.7 87 0.9 NNW 13 15 7 8 1007.5 1007.5 0.0
 
Date/Time
EST
Tmp

°C
App
Tmp
°C
Dew
Point
°C
Rel
Hum
%
Delta-T

°C
Wind Press
QNH
hPa
Press
MSL
hPa
Rain
since
9 am
mm
Dir
 
Spd
km/h
Gust
km/h
Spd
kts
Gust
kts
16/11:30pm 8.6 5.4 6.7 88 0.9 NW 13 17 7 9 1007.7 1007.7 0.0
16/11:00pm 8.9 6.2 7.2 89 0.8 NW 11 13 6 7 1008.1 1008.1 0.0
16/10:30pm 8.9 5.7 7.0 88 0.9 NW 13 15 7 8 1008.4 1008.4 0.0
16/10:00pm 8.9 6.2 7.2 89 0.8 WNW 11 13 6 7 1008.5 1008.5 0.0
16/09:30pm 10.0 6.6 7.8 86 1.1 NNW 15 22 8 12 1008.6 1008.6 0.0
16/09:00pm 10.5 5.8 7.6 82 1.4 N 22 24 12 13 1008.8 1008.8 0.0
16/08:30pm 11.0 5.3 8.2 83 1.4 N 28 32 15 17 1008.6 1008.6 0.0
16/08:00pm 11.1 4.9 7.8 80 1.6 N 30 33 16 18 1008.7 1008.7 0.0
16/07:30pm 10.9 5.5 8.0 82 1.4 N 26 32 14 17 1008.7 1008.7 0.0
16/07:00pm 11.0 4.7 7.5 79 1.7 N 30 35 16 19 1008.6 1008.6 0.0
16/06:30pm 11.2 4.4 7.7 79 1.7 N 33 39 18 21 1008.6 1008.6 0.0
16/06:00pm 11.6 4.8 7.9 78 1.8 N 33 39 18 21 1008.7 1008.7 0.0
16/05:30pm 11.7 4.8 7.2 74 2.2 N 33 37 18 20 1008.5 1008.5 0.0
16/05:00pm 11.8 5.3 6.3 69 2.6 N 30 39 16 21 1008.6 1008.6 0.0
16/04:30pm 12.2 6.2 6.9 70 2.5 N 28 33 15 18 1008.7 1008.7 0.0
16/04:00pm 12.1 5.6 6.6 69 2.6 NNE 30 35 16 19 1008.6 1008.6 0.0
16/03:30pm 12.3 5.8 6.6 68 2.7 N 30 35 16 19 1008.7 1008.7 0.0
16/03:00pm 12.3 6.1 6.1 66 2.9 NNE 28 32 15 17 1009.0 1009.0 0.0
16/02:30pm 12.4 7.0 6.5 67 2.8 NNE 24 30 13 16 1009.1 1009.1 0.0
16/02:00pm 12.6 7.2 6.2 65 3.0 NNE 24 32 13 17 1009.2 1009.2 0.0
16/01:30pm 12.9 7.5 6.3 64 3.1 NNE 24 30 13 16 1009.4 1009.4 0.0
16/01:00pm 12.9 7.5 6.5 65 3.1 NNE 24 32 13 17 1009.9 1009.9 0.0
16/12:30pm 12.8 6.5 5.7 62 3.3 N 28 32 15 17 1010.5 1010.5 0.0
16/12:00pm 12.6 6.6 5.5 62 3.3 N 26 33 14 18 1010.9 1010.9 0.0
16/11:30am 11.9 6.3 5.5 65 3.0 N 24 30 13 16 1011.4 1011.4 0.0
16/11:00am 11.8 5.5 5.9 67 2.8 N 28 32 15 17 1011.8 1011.8 0.0
16/10:30am 11.5 6.7 5.8 68 2.7 N 20 26 11 14 1012.4 1012.4 0.0
16/10:00am 11.1 7.3 5.6 69 2.5 N 15 19 8 10 1012.7 1012.7 0.0
16/09:30am 10.0 7.8 6.2 77 1.8 N 7 9 4 5 1013.1 1013.1 0.0
16/09:00am 9.6 6.9 5.6 76 1.8 N 9 11 5 6 1013.4 1013.4 0.0
16/08:30am 9.3 6.5 5.3 76 1.8 N 9 11 5 6 1013.5 1013.5 0.0
16/08:00am 9.2 6.5 5.4 77 1.7 N 9 11 5 6 1013.5 1013.5 0.0
16/07:30am 8.1 5.9 6.1 87 0.9 NW 7 11 4 6 1013.6 1013.6 0.0
16/07:00am 7.3 4.9 5.1 86 1.0 NNW 7 9 4 5 1013.5 1013.5 0.0
16/06:30am 7.6 4.8 5.2 85 1.1 NW 9 11 5 6 1013.4 1013.4 0.0
16/06:00am 8.3 4.6 4.7 78 1.6 N 13 17 7 9 1013.3 1013.3 0.0
16/05:30am 8.5 4.5 4.7 77 1.7 NNW 15 17 8 9 1013.2 1013.2 0.0
16/05:00am 8.0 4.4 4.8 80 1.4 NW 13 15 7 8 1013.4 1013.4 0.0
16/04:30am 8.0 4.3 4.6 79 1.5 NW 13 15 7 8 1013.3 1013.3 0.0
16/04:00am 8.3 4.3 4.7 78 1.6 NNW 15 17 8 9 1013.2 1013.2 0.0
16/03:30am 7.4 5.6 5.4 87 0.9 NNW 4 6 2 3 1013.4 1013.4 0.0
16/03:00am 7.2 6.1 5.0 86 1.0 CALM 0 4 0 2 1013.6 1013.6 0.0
16/02:30am 7.7 6.6 5.3 85 1.1 CALM 0 0 0 0 1013.9 1013.9 0.0
16/02:00am 8.2 7.2 5.7 84 1.1 CALM 0 2 0 1 1014.3 1014.3 0.0
16/01:30am 7.8 5.6 5.1 83 1.2 NW 6 7 3 4 1014.7 1014.7 0.0
16/01:00am 8.4 7.3 5.2 80 1.4 CALM 0 2 0 1 1015.1 1015.1 0.0
16/12:30am 8.6 6.8 5.2 79 1.5 WNW 4 6 2 3 1015.2 1015.2 0.0
16/12:00am 8.9 7.0 5.1 77 1.7 WNW 4 6 2 3 1015.5 1015.5 0.0
 
Date/Time
EST
Tmp

°C
App
Tmp
°C
Dew
Point
°C
Rel
Hum
%
Delta-T

°C
Wind Press
QNH
hPa
Press
MSL
hPa
Rain
since
9 am
mm
Dir
 
Spd
km/h
Gust
km/h
Spd
kts
Gust
kts
15/11:30pm 8.8 6.4 5.4 79 1.5 WNW 7 9 4 5 1015.7 1015.7 0.0
15/11:00pm 8.3 5.6 3.6 72 2.0 NE 7 7 4 4 1016.0 1016.0 0.0
15/10:30pm 8.3 5.6 3.9 74 1.9 ENE 7 9 4 5 1016.2 1016.2 0.0
15/10:00pm 8.7 6.0 3.9 72 2.1 E 7 9 4 5 1016.2 1016.2 0.0
15/09:30pm 8.7 5.7 3.9 72 2.1 ENE 9 11 5 6 1016.4 1016.4 0.0
15/09:00pm 8.6 5.6 4.0 73 2.0 ENE 9 11 5 6 1016.6 1016.6 0.0
15/08:30pm 8.0 4.6 4.0 76 1.7 ENE 11 11 6 6 1016.7 1016.7 0.0
15/08:00pm 7.9 5.2 3.8 75 1.8 E 7 9 4 5 1016.7 1016.7 0.0
15/07:30pm 8.6 5.9 3.8 72 2.1 E 7 9 4 5 1016.6 1016.6 0.0
15/07:00pm 8.9 6.2 3.5 69 2.3 ESE 7 9 4 5 1016.6 1016.6 0.0
15/06:30pm 9.1 5.6 3.5 68 2.4 ESE 11 15 6 8 1016.5 1016.5 0.0
15/06:00pm 9.5 5.7 3.7 67 2.5 SE 13 19 7 10 1016.3 1016.3 0.0
15/05:30pm 9.9 5.8 4.1 67 2.6 SE 15 22 8 12 1016.2 1016.2 0.0
15/05:00pm 10.3 6.1 3.6 63 2.9 SE 15 22 8 12 1016.2 1016.2 0.0
15/04:30pm 10.5 6.3 3.8 63 3.0 SSE 15 19 8 10 1015.9 1015.9 0.0
15/04:00pm 11.4 7.5 3.4 58 3.5 SSE 13 22 7 12 1015.9 1015.9 0.0
15/03:30pm 11.6 6.5 3.1 56 3.7 SSE 19 26 10 14 1015.8 1015.8 0.0
15/03:00pm 11.9 6.8 3.9 58 3.6 S 20 24 11 13 1016.1 1016.1 0.0
15/02:30pm 11.9 6.3 3.7 57 3.7 S 22 26 12 14 1016.2 1016.2 0.0
15/02:00pm 11.6 6.3 2.9 55 3.8 S 20 26 11 14 1016.6 1016.6 0.0
15/01:30pm 11.7 6.3 2.7 54 3.9 S 20 26 11 14 1016.8 1016.8 0.0
15/01:00pm 11.4 5.7 2.9 56 3.7 S 22 26 12 14 1017.1 1017.1 0.0
15/12:30pm 11.5 5.6 4.0 60 3.4 S 24 28 13 15 1017.4 1017.4 0.0
15/12:00pm 11.6 6.5 2.9 55 3.8 S 19 26 10 14 1017.9 1017.9 0.0
15/11:30am 11.7 6.9 2.5 53 4.0 SSW 17 22 9 12 1018.1 1018.1 0.0
15/11:00am 11.6 6.3 2.9 55 3.8 SSW 20 28 11 15 1018.2 1018.2 0.0
15/10:30am 11.1 6.2 2.2 54 3.8 SSW 17 20 9 11 1018.4 1018.4 0.0
15/10:00am 11.3 6.2 2.9 56 3.6 SSW 19 24 10 13 1018.5 1018.5 0.0
15/09:30am 10.7 6.5 1.8 54 3.8 SW 13 15 7 8 1018.4 1018.4 0.0
15/09:00am 10.7 6.2 2.3 56 3.6 SW 15 20 8 11 1018.3 1018.3 0.0
15/08:30am 9.7 4.7 1.6 57 3.4 W 17 20 9 11 1018.3 1018.3 0.0
15/08:00am 8.7 2.9 2.1 63 2.7 W 22 26 12 14 1018.2 1018.2 0.0
15/07:30am 8.2 2.6 1.4 62 2.8 W 20 24 11 13 1018.0 1018.0 0.0

Latest Capital City Observations: Canberra | Sydney | Melbourne | Brisbane | Adelaide | Perth | Hobart | Darwin

Other Formats:

Comma delimited format used in spreadsheet applications
http://www.bom.gov.au/fwo/IDT60901/IDT60901.95988.axf

JavaScript Object Notation format (JSON) in row-major order
http://www.bom.gov.au/fwo/IDT60901/IDT60901.95988.json